Time;durP1;ratioP1;P1;durP2;ratioP2;P2;SDS_P1;SDS_P2;PMS_P1;PMS_P2;Temp;Humidity;BMP_temperature;BMP_pressure;BME280_temperature;BME280_humidity;BME280_pressure;Samples;Min_cycle;Max_cycle;Signal;HPM_P1;HPM_P2
2021/03/09 00:01:26;;;;;;;25.87;13.27;;;6.20;80.80;;;;;;5101209;28;20023;-90
2021/03/09 00:03:52;;;;;;;24.50;12.20;;;6.20;80.90;;;;;;5100734;28;20069;-89
2021/03/09 00:06:17;;;;;;;25.50;12.47;;;6.20;80.80;;;;;;5101265;28;20114;-90
2021/03/09 00:08:43;;;;;;;25.37;12.97;;;6.20;80.90;;;;;;5100754;28;20042;-90
2021/03/09 00:11:08;;;;;;;26.30;12.37;;;6.20;80.90;;;;;;5098172;28;20023;-89
2021/03/09 00:13:34;;;;;;;23.83;11.53;;;6.20;80.90;;;;;;5079902;28;20031;-89
2021/03/09 00:15:59;;;;;;;26.30;13.37;;;6.20;81.10;;;;;;5079500;28;20054;-89
2021/03/09 00:18:25;;;;;;;28.37;13.60;;;6.10;81.50;;;;;;5079519;28;20491;-89
2021/03/09 00:20:51;;;;;;;29.13;13.73;;;6.10;81.80;;;;;;5079717;28;20067;-89
2021/03/09 00:23:16;;;;;;;26.77;13.87;;;6.10;81.30;;;;;;5080350;28;20020;-88
2021/03/09 00:25:42;;;;;;;30.43;14.70;;;6.10;81.20;;;;;;5080144;28;20122;-89
2021/03/09 00:28:07;;;;;;;27.13;15.10;;;6.10;81.30;;;;;;5080535;28;20141;-90
2021/03/09 00:30:33;;;;;;;28.63;15.73;;;6.00;81.50;;;;;;5080576;28;20526;-89
2021/03/09 00:32:58;;;;;;;31.03;15.07;;;6.00;81.60;;;;;;5080532;28;20055;-89
2021/03/09 00:35:24;;;;;;;30.63;14.80;;;6.00;81.70;;;;;;5080086;28;20020;-89
2021/03/09 00:37:50;;;;;;;29.67;14.87;;;6.00;81.70;;;;;;5078905;28;20024;-90
2021/03/09 00:40:15;;;;;;;28.87;14.90;;;6.00;81.60;;;;;;5079138;28;20020;-90
2021/03/09 00:42:41;;;;;;;28.67;14.30;;;5.90;81.70;;;;;;5097311;28;20032;-88
2021/03/09 00:45:07;;;;;;;31.07;15.57;;;5.90;82.00;;;;;;5078618;28;20020;-89
2021/03/09 00:47:33;;;;;;;29.80;14.07;;;5.90;81.80;;;;;;5078624;28;20477;-89
2021/03/09 00:49:59;;;;;;;30.73;15.30;;;5.90;81.80;;;;;;5078014;28;20491;-89
2021/03/09 00:52:24;;;;;;;30.53;14.87;;;6.00;81.80;;;;;;5079376;28;20024;-89
2021/03/09 00:54:50;;;;;;;31.10;15.17;;;5.90;82.10;;;;;;5079623;28;20036;-89
2021/03/09 00:57:16;;;;;;;29.87;15.03;;;5.90;82.00;;;;;;5058755;28;20389;-89
2021/03/09 00:59:41;;;;;;;30.00;15.43;;;5.90;81.80;;;;;;5058006;28;20032;-89
2021/03/09 01:02:07;;;;;;;28.60;15.17;;;6.00;81.90;;;;;;5058138;28;20051;-89
2021/03/09 01:04:33;;;;;;;32.77;16.33;;;6.00;82.00;;;;;;5058174;28;20063;-90
2021/03/09 01:06:58;;;;;;;30.60;14.90;;;5.90;82.10;;;;;;5058698;28;20029;-89
2021/03/09 01:09:24;;;;;;;30.03;15.23;;;5.90;82.20;;;;;;5058523;28;20025;-90
2021/03/09 01:11:49;;;;;;;33.63;16.70;;;5.90;82.20;;;;;;5066999;28;20513;-89
2021/03/09 01:14:15;;;;;;;33.13;17.97;;;5.90;82.30;;;;;;5078536;28;20110;-90
2021/03/09 01:16:40;;;;;;;34.83;17.60;;;5.90;82.30;;;;;;5080389;28;20036;-90
2021/03/09 01:19:06;;;;;;;34.40;18.50;;;5.90;82.30;;;;;;5100012;28;20444;-88
2021/03/09 01:21:34;;;;;;;34.20;18.63;;;5.90;82.40;;;;;;5081894;28;20537;-89
2021/03/09 01:24:00;;;;;;;37.47;20.30;;;5.80;82.50;;;;;;5079062;28;20031;-89
2021/03/09 01:26:26;;;;;;;40.03;20.27;;;5.80;82.50;;;;;;5080464;28;20027;-90
2021/03/09 01:28:51;;;;;;;36.00;18.73;;;5.80;82.70;;;;;;5081663;28;20024;-89
2021/03/09 01:31:17;;;;;;;39.10;21.23;;;5.80;82.70;;;;;;5080994;28;20020;-90
2021/03/09 01:33:43;;;;;;;40.93;22.03;;;5.90;83.20;;;;;;5082133;28;20024;-89
2021/03/09 01:36:08;;;;;;;41.87;22.80;;;5.80;83.40;;;;;;5081679;28;20122;-90
2021/03/09 01:38:34;;;;;;;40.93;22.40;;;5.80;82.70;;;;;;5078716;28;20115;-89
2021/03/09 01:40:59;;;;;;;46.10;24.37;;;5.80;82.70;;;;;;5096748;28;20031;-90
2021/03/09 01:43:25;;;;;;;48.50;26.63;;;5.80;82.70;;;;;;5078421;28;20042;-90
2021/03/09 01:45:51;;;;;;;47.97;26.13;;;5.80;82.70;;;;;;5078557;28;20149;-90
2021/03/09 01:48:20;;;;;;;45.63;25.13;;;5.80;83.70;;;;;;5078340;28;20046;-89
2021/03/09 01:50:47;;;;;;;48.73;26.27;;;5.80;82.80;;;;;;5078447;28;20020;-89
2021/03/09 01:53:13;;;;;;;50.60;27.27;;;5.80;82.80;;;;;;5096218;28;20028;-89
2021/03/09 01:55:39;;;;;;;53.83;29.37;;;5.80;82.80;;;;;;5096354;28;20051;-90
2021/03/09 01:58:08;;;;;;;48.43;25.63;;;5.80;84.30;;;;;;5098836;28;20023;-90
2021/03/09 02:00:34;;;;;;;52.42;28.73;;;5.80;83.00;;;;;;5098515;28;20043;-90
2021/03/09 02:03:00;;;;;;;49.53;28.20;;;5.80;83.20;;;;;;5098428;28;20027;-90
2021/03/09 02:05:25;;;;;;;51.87;28.87;;;5.80;83.20;;;;;;5098167;28;20030;-89
2021/03/09 02:07:51;;;;;;;56.77;29.53;;;5.70;83.20;;;;;;5117236;28;20217;-89
2021/03/09 02:10:16;;;;;;;52.40;29.17;;;5.70;83.20;;;;;;5098479;28;20019;-89
2021/03/09 02:13:09;;;;;;;54.23;29.67;;;5.70;84.00;;;;;;5096872;28;20054;-89
2021/03/09 02:15:42;;;;;;;55.47;30.47;;;5.70;83.40;;;;;;5115458;28;20028;-89
2021/03/09 02:18:13;;;;;;;51.93;28.17;;;5.70;83.20;;;;;;5097800;28;20115;-89
2021/03/09 02:21:03;;;;;;;58.33;31.57;;;5.70;83.50;;;;;;5097611;28;20053;-89
2021/03/09 02:24:17;;;;;;;56.13;30.27;;;5.60;84.10;;;;;;5097534;28;20030;-88
2021/03/09 02:27:16;;;;;;;53.80;29.33;;;5.60;83.70;;;;;;5097221;28;20106;-90
2021/03/09 02:29:42;;;;;;;57.80;30.00;;;5.60;84.70;;;;;;5097081;28;20057;-90
2021/03/09 02:32:16;;;;;;;58.60;30.70;;;5.50;84.60;;;;;;5097053;28;20020;-90
2021/03/09 02:35:06;;;;;;;57.10;29.90;;;5.50;84.50;;;;;;5096925;28;20055;-90
2021/03/09 02:37:37;;;;;;;58.73;28.77;;;5.50;84.40;;;;;;5097067;28;20084;-89
2021/03/09 02:40:06;;;;;;;59.03;31.20;;;5.50;84.40;;;;;;5097226;28;20028;-90
2021/03/09 02:42:37;;;;;;;55.50;29.88;;;5.50;84.40;;;;;;5097170;28;20035;-90
2021/03/09 02:45:04;;;;;;;60.10;31.03;;;5.40;84.40;;;;;;5100395;28;20042;-89
2021/03/09 02:47:32;;;;;;;58.00;31.83;;;5.40;84.80;;;;;;5100549;28;20110;-89
2021/03/09 02:49:59;;;;;;;65.47;32.07;;;5.40;84.90;;;;;;5101013;28;20024;-89
2021/03/09 02:52:27;;;;;;;62.60;32.50;;;5.40;84.60;;;;;;5100684;28;20030;-90
2021/03/09 02:54:54;;;;;;;64.35;32.33;;;5.40;84.40;;;;;;5088677;28;20028;-88
2021/03/09 02:57:21;;;;;;;64.33;32.23;;;5.40;84.60;;;;;;5080847;28;20032;-89
2021/03/09 02:59:48;;;;;;;64.73;33.90;;;5.40;84.70;;;;;;5098617;28;20020;-89
2021/03/09 03:02:17;;;;;;;60.03;33.07;;;5.40;85.40;;;;;;5080392;28;20028;-88
2021/03/09 03:04:46;;;;;;;62.90;33.38;;;5.40;84.60;;;;;;5080048;28;20028;-88
2021/03/09 03:07:12;;;;;;;62.08;33.47;;;5.40;85.00;;;;;;5080301;28;20024;-89
2021/03/09 03:09:39;;;;;;;60.40;33.43;;;5.40;85.70;;;;;;5080681;28;20047;-88
2021/03/09 03:12:06;;;;;;;57.80;32.53;;;5.40;84.80;;;;;;5060723;28;566598;-89
2021/03/09 03:14:34;;;;;;;62.30;33.87;;;5.30;84.80;;;;;;5082242;28;20093;-89
2021/03/09 03:17:02;;;;;;;63.10;35.03;;;5.30;85.00;;;;;;5082394;28;20056;-89
2021/03/09 03:19:29;;;;;;;64.65;34.72;;;5.30;84.70;;;;;;5082160;28;20059;-89
2021/03/09 03:21:56;;;;;;;63.50;35.10;;;5.30;84.70;;;;;;5082248;28;20535;-90
2021/03/09 03:24:24;;;;;;;64.20;33.73;;;5.40;84.60;;;;;;5080111;28;20081;-91
2021/03/09 03:26:52;;;;;;;63.50;35.53;;;5.40;84.70;;;;;;5080861;28;20016;-90
2021/03/09 03:29:19;;;;;;;66.30;36.90;;;5.40;85.00;;;;;;5080744;28;20024;-90
2021/03/09 03:31:46;;;;;;;62.53;35.27;;;5.40;84.80;;;;;;5084168;28;20050;-90
2021/03/09 03:34:12;;;;;;;66.63;35.40;;;5.40;85.10;;;;;;5081930;28;20031;-88
2021/03/09 03:36:37;;;;;;;63.07;34.07;;;5.40;84.60;;;;;;5083771;28;20031;-90
2021/03/09 03:39:04;;;;;;;66.07;34.47;;;5.40;85.00;;;;;;5095632;28;20028;-88
2021/03/09 03:41:30;;;;;;;65.80;35.13;;;5.40;85.00;;;;;;5082242;28;20032;-89
2021/03/09 03:43:55;;;;;;;66.87;36.00;;;5.40;85.00;;;;;;5082778;28;20070;-90
2021/03/09 03:46:21;;;;;;;62.80;36.07;;;5.30;85.60;;;;;;5082728;28;20042;-89
2021/03/09 03:48:47;;;;;;;66.10;36.50;;;5.30;85.20;;;;;;5083016;28;20530;-88
2021/03/09 03:51:15;;;;;;;68.83;36.27;;;5.20;85.30;;;;;;5082557;28;20056;-90
2021/03/09 03:54:18;;;;;;;67.27;36.13;;;5.20;85.90;;;;;;5087184;28;20024;-89
2021/03/09 03:57:06;;;;;;;64.67;35.47;;;5.20;85.90;;;;;;5101459;28;20028;-88
2021/03/09 03:59:37;;;;;;;65.13;34.97;;;5.20;85.80;;;;;;5101585;28;20309;-89
2021/03/09 04:02:06;;;;;;;62.60;35.77;;;5.20;85.50;;;;;;5101821;28;20023;-89
2021/03/09 04:04:34;;;;;;;65.20;34.97;;;5.20;85.90;;;;;;5101379;28;20057;-90
2021/03/09 04:07:01;;;;;;;60.83;34.23;;;5.20;86.00;;;;;;5101673;28;20055;-90
2021/03/09 04:09:27;;;;;;;64.03;33.90;;;5.10;85.80;;;;;;5100700;28;20020;-89
2021/03/09 04:11:54;;;;;;;62.37;34.77;;;5.10;86.00;;;;;;5101503;28;20428;-91
2021/03/09 04:14:21;;;;;;;62.67;35.93;;;5.10;88.00;;;;;;5122004;28;20028;-89
2021/03/09 04:16:49;;;;;;;60.67;31.90;;;5.10;86.10;;;;;;5106798;28;20027;-90
2021/03/09 04:19:16;;;;;;;56.17;30.53;;;5.10;85.90;;;;;;5107199;28;20061;-90
2021/03/09 04:21:43;;;;;;;55.03;30.87;;;5.10;86.00;;;;;;5107389;28;20359;-88
2021/03/09 04:24:13;;;;;;;56.77;30.03;;;5.10;85.80;;;;;;5103585;28;20085;-89
2021/03/09 04:26:42;;;;;;;53.57;30.37;;;5.10;85.90;;;;;;5100124;28;20036;-90
2021/03/09 04:29:10;;;;;;;57.20;30.63;;;5.20;85.70;;;;;;5100799;28;20044;-88
2021/03/09 04:31:37;;;;;;;56.13;30.67;;;5.20;86.00;;;;;;5100284;28;20024;-90
2021/03/09 04:34:03;;;;;;;53.80;29.70;;;5.20;85.80;;;;;;5099771;28;20032;-90
2021/03/09 04:36:30;;;;;;;51.77;30.07;;;5.10;86.10;;;;;;5099814;28;20081;-91
2021/03/09 04:38:56;;;;;;;52.10;29.07;;;5.20;85.80;;;;;;5099410;28;20030;-89
2021/03/09 04:41:22;;;;;;;53.00;29.37;;;5.10;86.00;;;;;;5100010;28;20481;-89
2021/03/09 04:43:48;;;;;;;50.73;28.73;;;5.20;86.40;;;;;;5099403;28;20031;-89
2021/03/09 04:46:14;;;;;;;52.37;29.60;;;5.10;86.20;;;;;;5099286;28;20396;-91
2021/03/09 04:48:40;;;;;;;50.30;26.27;;;5.10;86.00;;;;;;5117904;28;20106;-90
2021/03/09 04:51:14;;;;;;;49.37;27.13;;;5.20;86.10;;;;;;5099846;28;20530;-88
2021/03/09 04:53:41;;;;;;;46.07;25.93;;;5.20;85.90;;;;;;5096708;28;20582;-90
2021/03/09 04:56:07;;;;;;;47.33;26.43;;;5.20;86.20;;;;;;5078705;28;20469;-89
2021/03/09 04:58:32;;;;;;;44.63;25.60;;;5.20;86.10;;;;;;5078559;28;20119;-91
2021/03/09 05:00:58;;;;;;;46.53;25.97;;;5.10;86.00;;;;;;5079448;28;20074;-89
2021/03/09 05:03:24;;;;;;;45.40;25.03;;;5.10;86.10;;;;;;5096756;28;20395;-88
2021/03/09 05:05:51;;;;;;;49.10;27.20;;;5.10;86.10;;;;;;5077576;28;20389;-91
2021/03/09 05:08:16;;;;;;;48.93;27.43;;;5.10;86.60;;;;;;5078527;28;20070;-89
2021/03/09 05:10:42;;;;;;;49.10;25.20;;;5.10;86.60;;;;;;5097913;28;20024;-89
2021/03/09 05:13:08;;;;;;;47.73;26.00;;;5.10;86.40;;;;;;5078500;28;20048;-88
2021/03/09 05:15:34;;;;;;;43.23;23.53;;;5.00;86.30;;;;;;5079027;28;20106;-89
2021/03/09 05:17:59;;;;;;;44.77;25.70;;;5.00;86.60;;;;;;5079053;28;20451;-90
2021/03/09 05:20:25;;;;;;;43.23;24.63;;;5.10;86.90;;;;;;5080283;28;20089;-89
2021/03/09 05:22:51;;;;;;;44.50;24.83;;;5.00;87.20;;;;;;5096816;28;20020;-90
2021/03/09 05:25:17;;;;;;;43.40;24.30;;;5.00;86.90;;;;;;5079864;28;20035;-91
2021/03/09 05:27:44;;;;;;;36.67;21.67;;;5.00;86.50;;;;;;5080731;28;20024;-90
2021/03/09 05:30:11;;;;;;;42.23;22.60;;;5.10;86.80;;;;;;5082291;28;20016;-90
2021/03/09 05:32:37;;;;;;;39.23;21.33;;;5.10;86.50;;;;;;5081407;28;20027;-90
2021/03/09 05:35:05;;;;;;;42.23;25.20;;;5.10;86.80;;;;;;5080881;28;20111;-89
2021/03/09 05:37:30;;;;;;;39.17;23.50;;;5.00;86.50;;;;;;5078667;28;20028;-89
2021/03/09 05:39:56;;;;;;;40.33;22.57;;;5.00;87.00;;;;;;5080007;28;20034;-89
2021/03/09 05:42:22;;;;;;;43.90;25.93;;;5.00;86.70;;;;;;5080239;28;20035;-91
2021/03/09 05:44:48;;;;;;;40.27;24.17;;;5.00;86.80;;;;;;5079319;28;20524;-86
2021/03/09 05:47:13;;;;;;;38.67;23.07;;;5.00;86.80;;;;;;5099334;28;20020;-87
2021/03/09 05:49:39;;;;;;;40.50;23.43;;;4.90;86.80;;;;;;5082446;28;20076;-87
2021/03/09 05:52:05;;;;;;;42.43;22.87;;;4.90;86.90;;;;;;5079793;28;20031;-89
2021/03/09 05:54:31;;;;;;;40.87;23.63;;;4.90;87.00;;;;;;5089468;28;20027;-87
2021/03/09 05:56:56;;;;;;;38.70;23.43;;;4.90;87.60;;;;;;5103250;28;20028;-87
2021/03/09 05:59:23;;;;;;;41.03;23.43;;;4.90;87.00;;;;;;5101184;28;20031;-88
2021/03/09 06:01:50;;;;;;;41.93;23.90;;;4.90;86.80;;;;;;5101060;28;20026;-87
2021/03/09 06:04:16;;;;;;;42.63;24.50;;;4.90;86.90;;;;;;5102607;28;20027;-86
2021/03/09 06:06:42;;;;;;;44.63;26.20;;;4.90;87.30;;;;;;5093042;28;20028;-87
2021/03/09 06:09:32;;;;;;;45.97;27.27;;;4.80;87.40;;;;;;5072292;28;20024;-89
2021/03/09 06:12:13;;;;;;;49.60;29.83;;;4.80;87.50;;;;;;5067582;28;20119;-87
2021/03/09 06:14:40;;;;;;;50.37;28.77;;;4.70;89.40;;;;;;5057021;28;20081;-88
2021/03/09 06:17:06;;;;;;;54.90;31.47;;;4.70;87.60;;;;;;5057572;28;20060;-88
2021/03/09 06:19:43;;;;;;;53.07;31.13;;;4.60;88.30;;;;;;5074004;28;20043;-86
2021/03/09 06:22:09;;;;;;;48.37;29.90;;;4.60;90.20;;;;;;5075148;28;20024;-88
2021/03/09 06:24:35;;;;;;;51.97;30.20;;;4.70;87.60;;;;;;5053969;28;20024;-87
2021/03/09 06:27:01;;;;;;;50.87;30.30;;;4.70;87.60;;;;;;5055442;28;20588;-89
2021/03/09 06:29:26;;;;;;;49.60;28.77;;;4.70;87.80;;;;;;5066718;28;20020;-86
2021/03/09 06:31:54;;;;;;;51.57;29.27;;;4.70;87.80;;;;;;5062250;28;20024;-88
2021/03/09 06:34:20;;;;;;;49.50;30.10;;;4.60;87.70;;;;;;5077370;28;20085;-88
2021/03/09 06:37:06;;;;;;;48.20;28.97;;;4.70;87.90;;;;;;5044012;28;20060;-87
2021/03/09 06:39:57;;;;;;;48.60;28.57;;;4.60;87.70;;;;;;5039594;28;20032;-87
2021/03/09 06:42:32;;;;;;;49.07;28.90;;;4.60;87.90;;;;;;5039752;28;20029;-89
2021/03/09 06:45:01;;;;;;;43.73;25.73;;;4.60;87.70;;;;;;5050463;28;20028;-88
2021/03/09 06:47:35;;;;;;;47.65;26.70;;;4.60;88.30;;;;;;5059213;28;20021;-89
2021/03/09 06:50:04;;;;;;;41.47;25.97;;;4.70;87.60;;;;;;5078697;28;20054;-87
2021/03/09 06:52:30;;;;;;;45.40;26.48;;;4.70;87.70;;;;;;5079602;28;20017;-89
2021/03/09 06:54:56;;;;;;;43.37;25.87;;;4.60;87.70;;;;;;5067752;28;20119;-84
2021/03/09 06:57:23;;;;;;;39.63;25.17;;;4.60;87.70;;;;;;5075760;28;20036;-87
2021/03/09 06:59:52;;;;;;;41.70;25.97;;;4.60;88.00;;;;;;5065091;28;20071;-89
2021/03/09 07:02:28;;;;;;;41.72;24.98;;;4.60;87.70;;;;;;5064649;28;20024;-88
2021/03/09 07:05:05;;;;;;;38.57;24.67;;;4.60;87.70;;;;;;5059054;28;20119;-90
2021/03/09 07:07:34;;;;;;;42.70;25.83;;;4.60;88.40;;;;;;5057070;28;20020;-90
2021/03/09 07:10:11;;;;;;;43.42;26.25;;;4.60;87.60;;;;;;5057075;28;20025;-88
2021/03/09 07:12:39;;;;;;;43.23;25.97;;;4.60;88.30;;;;;;5059326;28;20064;-89
2021/03/09 07:15:07;;;;;;;43.03;27.43;;;4.60;88.20;;;;;;5048534;28;20064;-85
2021/03/09 07:17:35;;;;;;;45.80;28.20;;;4.50;88.20;;;;;;5073752;28;20512;-89
2021/03/09 07:20:04;;;;;;;45.00;30.10;;;4.60;87.70;;;;;;5068488;28;20036;-91
2021/03/09 07:22:30;;;;;;;48.27;30.93;;;4.50;88.60;;;;;;5057203;28;20031;-91
2021/03/09 07:24:56;;;;;;;46.27;29.40;;;4.50;87.70;;;;;;5055248;28;20283;-93
2021/03/09 07:27:37;;;;;;;44.90;28.30;;;4.50;87.80;;;;;;5057387;28;20021;-88
2021/03/09 07:30:05;;;;;;;43.77;28.27;;;4.50;88.80;;;;;;5051807;28;20466;-89
2021/03/09 07:32:31;;;;;;;45.17;28.30;;;4.50;87.90;;;;;;5042270;28;20018;-88
2021/03/09 07:34:59;;;;;;;45.47;28.47;;;4.50;88.10;;;;;;5042038;28;20009;-89
2021/03/09 07:37:25;;;;;;;47.70;29.73;;;4.50;87.80;;;;;;5041908;28;20033;-89
2021/03/09 07:39:51;;;;;;;47.57;30.53;;;4.40;88.30;;;;;;5043693;28;20461;-89
2021/03/09 07:42:19;;;;;;;47.50;30.93;;;4.40;88.10;;;;;;5060799;28;20043;-89
2021/03/09 07:44:47;;;;;;;48.50;30.30;;;4.40;87.90;;;;;;5057433;28;20024;-88
2021/03/09 07:47:14;;;;;;;47.00;29.83;;;4.40;88.10;;;;;;5073260;28;20051;-89
2021/03/09 07:49:41;;;;;;;49.43;31.80;;;4.30;88.20;;;;;;5078485;28;20020;-89
2021/03/09 07:52:12;;;;;;;48.83;31.93;;;4.30;88.20;;;;;;5043213;28;20044;-88
2021/03/09 07:54:39;;;;;;;47.10;30.53;;;4.30;88.00;;;;;;5041395;28;20120;-87
2021/03/09 07:57:20;;;;;;;50.43;31.83;;;4.30;88.00;;;;;;5060535;28;20035;-89
2021/03/09 08:00:06;;;;;;;47.00;30.87;;;4.30;88.40;;;;;;5063008;28;20054;-89
2021/03/09 08:02:51;;;;;;;47.87;30.50;;;4.30;88.50;;;;;;5044399;28;20033;-91
2021/03/09 08:05:22;;;;;;;44.87;29.03;;;4.20;88.30;;;;;;5046767;28;20036;-89
2021/03/09 08:07:57;;;;;;;43.17;27.43;;;4.20;88.10;;;;;;5061476;28;20032;-90
2021/03/09 08:10:44;;;;;;;47.07;29.60;;;4.20;89.20;;;;;;5055445;28;20029;-90
2021/03/09 08:13:17;;;;;;;45.03;29.33;;;4.20;88.20;;;;;;5065220;28;20048;-92
2021/03/09 08:15:43;;;;;;;43.50;26.83;;;4.20;89.00;;;;;;5074756;28;20036;-91
2021/03/09 08:18:21;;;;;;;41.33;27.60;;;4.20;88.70;;;;;;5091480;28;20079;-92
2021/03/09 08:20:58;;;;;;;42.37;26.83;;;4.20;88.20;;;;;;5096739;28;20043;-92
2021/03/09 08:34:39;;;;;;;39.07;24.83;;;4.10;88.70;;;;;;5085108;28;20082;-90
2021/03/09 08:37:29;;;;;;;40.37;25.90;;;4.10;88.70;;;;;;5092777;28;20024;-90
2021/03/09 08:40:19;;;;;;;38.20;24.93;;;4.20;88.50;;;;;;5085113;28;20028;-89
2021/03/09 08:43:03;;;;;;;36.60;23.13;;;4.20;88.50;;;;;;5083438;28;20470;-90
2021/03/09 08:45:43;;;;;;;36.70;24.53;;;4.20;88.90;;;;;;5084072;28;20044;-90
2021/03/09 08:48:11;;;;;;;37.43;24.73;;;4.20;88.20;;;;;;5087469;28;20557;-91
2021/03/09 08:50:45;;;;;;;38.87;25.50;;;4.10;88.50;;;;;;5084963;28;20024;-92
2021/03/09 08:53:25;;;;;;;37.73;26.17;;;4.10;89.30;;;;;;5083817;28;20315;-87
2021/03/09 08:55:59;;;;;;;34.47;23.33;;;4.20;89.50;;;;;;5081875;28;20027;-90
2021/03/09 08:58:25;;;;;;;38.40;25.43;;;4.20;88.40;;;;;;5087291;28;20020;-90
2021/03/09 09:00:52;;;;;;;36.53;24.33;;;4.20;89.30;;;;;;5080334;28;20047;-89
2021/03/09 09:03:50;;;;;;;36.83;24.50;;;4.20;88.40;;;;;;5084594;28;20024;-90
2021/03/09 09:06:15;;;;;;;35.33;23.37;;;4.10;90.10;;;;;;5061836;28;20082;-90
2021/03/09 09:08:42;;;;;;;36.23;23.60;;;4.20;88.20;;;;;;5087495;28;20012;-89
2021/03/09 09:11:07;;;;;;;36.43;23.90;;;4.10;88.30;;;;;;5086276;28;20030;-90
2021/03/09 09:13:35;;;;;;;34.87;22.37;;;4.20;88.50;;;;;;5081135;28;20024;-91
2021/03/09 09:16:16;;;;;;;33.20;21.93;;;4.20;88.50;;;;;;5079416;28;20035;-91
2021/03/09 09:18:42;;;;;;;33.93;21.50;;;4.20;88.50;;;;;;5081683;28;20051;-87
2021/03/09 09:21:07;;;;;;;31.67;20.87;;;4.20;88.10;;;;;;5079723;28;20473;-89
2021/03/09 09:23:36;;;;;;;34.57;21.57;;;4.20;88.40;;;;;;5079492;28;20427;-91
2021/03/09 09:26:02;;;;;;;32.92;21.70;;;4.20;88.10;;;;;;5080706;28;20421;-91
2021/03/09 09:28:30;;;;;;;33.43;22.70;;;4.20;88.50;;;;;;5081477;28;20035;-90
2021/03/09 09:31:03;;;;;;;33.40;22.27;;;4.10;88.40;;;;;;5087875;28;20079;-90
2021/03/09 09:33:29;;;;;;;32.13;20.60;;;4.10;88.10;;;;;;5097608;28;20048;-92
2021/03/09 09:35:55;;;;;;;33.43;22.97;;;4.20;88.10;;;;;;5082540;28;20029;-88
2021/03/09 09:38:21;;;;;;;34.33;22.80;;;4.10;88.70;;;;;;5082224;28;20024;-89
2021/03/09 09:40:58;;;;;;;33.00;22.03;;;4.10;88.80;;;;;;5094271;28;20096;-91
2021/03/09 09:43:26;;;;;;;33.33;21.47;;;4.10;89.40;;;;;;5070100;28;20020;-85
2021/03/09 09:45:55;;;;;;;33.90;22.30;;;4.10;88.60;;;;;;5058586;28;20474;-89
2021/03/09 09:48:27;;;;;;;33.23;21.87;;;4.10;89.60;;;;;;5072196;28;20027;-89
2021/03/09 09:50:58;;;;;;;30.53;21.00;;;4.20;88.70;;;;;;5079564;28;20035;-88
2021/03/09 09:53:40;;;;;;;31.83;21.20;;;4.20;88.30;;;;;;5074898;28;20026;-89
2021/03/09 09:56:11;;;;;;;32.00;21.70;;;4.20;88.50;;;;;;5078911;28;20027;-87
2021/03/09 09:58:45;;;;;;;30.93;20.60;;;4.30;88.20;;;;;;5096577;28;20069;-87
2021/03/09 10:01:15;;;;;;;33.17;21.93;;;4.20;88.10;;;;;;5078332;28;20028;-90
2021/03/09 10:03:53;;;;;;;31.80;20.27;;;4.20;88.10;;;;;;5078123;28;20077;-89
2021/03/09 10:06:19;;;;;;;31.20;20.70;;;4.20;88.30;;;;;;5077264;28;20519;-87
2021/03/09 10:08:45;;;;;;;31.33;20.13;;;4.20;88.20;;;;;;5076145;28;20489;-88
2021/03/09 10:11:11;;;;;;;30.40;20.27;;;4.20;88.20;;;;;;5075612;28;20047;-87
2021/03/09 10:13:38;;;;;;;29.77;19.80;;;4.20;88.10;;;;;;5077551;28;20035;-87
2021/03/09 10:16:04;;;;;;;28.83;19.60;;;4.20;88.10;;;;;;5076261;28;20028;-85
2021/03/09 10:18:32;;;;;;;30.63;21.00;;;4.20;88.00;;;;;;5075980;28;20028;-87
2021/03/09 10:21:00;;;;;;;30.20;19.57;;;4.20;88.10;;;;;;5073264;28;20473;-88
2021/03/09 10:23:26;;;;;;;28.73;18.87;;;4.20;88.50;;;;;;5078361;28;20456;-88
2021/03/09 10:26:00;;;;;;;28.80;18.63;;;4.20;88.10;;;;;;5097041;28;20024;-88
2021/03/09 10:28:26;;;;;;;26.43;16.90;;;4.30;88.00;;;;;;5077597;28;20489;-86
2021/03/09 10:30:53;;;;;;;27.47;18.33;;;4.30;88.00;;;;;;5075357;28;20390;-88
2021/03/09 10:33:19;;;;;;;27.23;18.20;;;4.40;88.20;;;;;;5093969;28;20044;-89
2021/03/09 10:36:20;;;;;;;27.53;17.83;;;4.30;88.20;;;;;;5097073;28;20034;-90
2021/03/09 10:38:45;;;;;;;26.40;17.37;;;4.30;88.10;;;;;;5052784;28;20060;-90
2021/03/09 10:41:25;;;;;;;27.40;18.27;;;4.30;88.00;;;;;;5071915;28;20561;-90
2021/03/09 10:43:50;;;;;;;;;;;4.40;88.20;;;;;;5076948;28;20087;-89
2021/03/09 10:46:16;;;;;;;26.83;17.70;;;4.40;87.90;;;;;;5095922;28;19959;-87
2021/03/09 10:48:42;;;;;;;26.57;17.30;;;4.40;88.00;;;;;;5072826;28;20054;-87
2021/03/09 10:51:15;;;;;;;25.93;17.27;;;4.40;87.90;;;;;;5079735;28;20452;-90
2021/03/09 10:53:40;;;;;;;26.53;16.47;;;4.50;88.00;;;;;;5070873;28;20039;-92
2021/03/09 10:56:06;;;;;;;24.17;15.33;;;4.50;88.30;;;;;;5056491;28;20028;-90
2021/03/09 10:58:31;;;;;;;24.13;15.53;;;4.50;87.70;;;;;;5056721;28;20025;-92
2021/03/09 11:00:57;;;;;;;24.03;15.30;;;4.60;87.80;;;;;;5077653;28;20085;-90
2021/03/09 11:03:23;;;;;;;24.97;15.70;;;4.60;87.70;;;;;;5080763;28;20031;-92
2021/03/09 11:05:48;;;;;;;23.13;15.27;;;4.60;87.60;;;;;;5087851;28;20036;-93
2021/03/09 11:08:14;;;;;;;24.70;15.60;;;4.60;88.20;;;;;;5084808;28;20030;-91
2021/03/09 11:10:39;;;;;;;22.73;14.70;;;4.60;88.40;;;;;;5086594;28;20032;-91
2021/03/09 11:13:05;;;;;;;25.30;16.00;;;4.70;87.60;;;;;;5078989;28;20028;-90
2021/03/09 11:15:30;;;;;;;23.47;15.27;;;4.70;88.60;;;;;;5087293;28;20035;-90
2021/03/09 11:17:56;;;;;;;23.40;15.43;;;4.70;87.60;;;;;;5092134;28;20046;-92
2021/03/09 11:20:21;;;;;;;24.00;15.03;;;4.70;87.70;;;;;;5093486;28;20012;-91
2021/03/09 11:22:47;;;;;;;23.20;14.73;;;4.80;88.00;;;;;;5079890;28;20024;-89
2021/03/09 11:25:13;;;;;;;22.97;14.53;;;4.80;88.40;;;;;;5097289;28;20542;-90
2021/03/09 11:27:38;;;;;;;22.93;14.83;;;4.70;87.70;;;;;;5081281;28;20024;-86
2021/03/09 11:30:05;;;;;;;22.90;14.53;;;4.80;87.40;;;;;;5081130;28;20438;-86
2021/03/09 11:32:31;;;;;;;22.40;14.33;;;4.80;87.40;;;;;;5098943;28;20044;-87
2021/03/09 11:34:57;;;;;;;23.93;14.30;;;4.80;87.70;;;;;;5085581;28;20104;-87
2021/03/09 11:37:22;;;;;;;23.73;14.40;;;4.80;87.90;;;;;;5081083;28;20071;-88
2021/03/09 11:39:48;;;;;;;23.77;15.10;;;4.80;87.80;;;;;;5082617;28;20038;-84
2021/03/09 11:42:13;;;;;;;25.40;16.07;;;4.80;87.80;;;;;;5065404;28;20028;-86
2021/03/09 11:44:39;;;;;;;23.97;15.40;;;4.80;88.50;;;;;;5075091;28;20123;-89
2021/03/09 11:47:07;;;;;;;23.53;15.13;;;4.80;90.20;;;;;;5080236;28;20111;-88
2021/03/09 11:49:33;;;;;;;24.35;15.38;;;4.80;88.20;;;;;;5098679;28;20024;-90
2021/03/09 11:51:59;;;;;;;24.53;14.47;;;4.90;87.80;;;;;;5079857;28;20038;-86
2021/03/09 11:54:24;;;;;;;22.53;13.97;;;4.90;88.30;;;;;;5075821;28;20576;-88
2021/03/09 11:56:50;;;;;;;24.13;15.60;;;4.90;87.60;;;;;;5079420;28;20036;-89
2021/03/09 11:59:16;;;;;;;25.23;15.83;;;5.00;88.30;;;;;;5099356;28;20111;-90
2021/03/09 12:01:41;;;;;;;25.13;14.87;;;5.00;87.60;;;;;;5080313;28;20032;-91
2021/03/09 12:04:07;;;;;;;24.73;14.97;;;5.00;88.10;;;;;;5082078;28;20120;-90
2021/03/09 12:06:33;;;;;;;24.93;16.10;;;5.00;88.40;;;;;;5092127;28;20028;-90
2021/03/09 12:08:58;;;;;;;24.73;16.00;;;5.00;87.80;;;;;;5103987;28;20023;-90
2021/03/09 12:11:24;;;;;;;22.27;14.37;;;5.10;87.60;;;;;;5083334;28;20016;-90
2021/03/09 12:13:49;;;;;;;24.83;14.53;;;5.10;88.30;;;;;;5088478;28;20099;-91
2021/03/09 12:16:15;;;;;;;25.27;13.97;;;5.10;88.70;;;;;;5079870;28;20027;-93
2021/03/09 12:18:41;;;;;;;24.90;15.70;;;5.10;88.00;;;;;;5090906;28;20020;-91
2021/03/09 12:21:07;;;;;;;23.43;14.53;;;5.10;87.90;;;;;;5081325;28;20482;-92
2021/03/09 12:23:32;;;;;;;23.43;14.33;;;5.10;88.10;;;;;;5090254;28;20024;-91
2021/03/09 12:25:58;;;;;;;22.40;14.30;;;5.20;87.60;;;;;;5081843;28;20051;-88
2021/03/09 12:28:24;;;;;;;27.20;16.27;;;5.20;90.00;;;;;;5077873;28;20080;-90
2021/03/09 12:30:50;;;;;;;24.03;14.33;;;5.20;88.50;;;;;;5082441;28;20275;-91
2021/03/09 12:33:19;;;;;;;24.77;15.20;;;5.20;87.60;;;;;;5070708;28;20398;-92
2021/03/09 12:35:44;;;;;;;28.17;14.77;;;5.20;88.50;;;;;;5084826;28;20024;-93
2021/03/09 12:38:10;;;;;;;26.03;16.03;;;5.20;88.00;;;;;;5098693;28;20518;-89
2021/03/09 12:40:36;;;;;;;25.87;16.40;;;5.30;88.30;;;;;;5082087;28;20028;-89
2021/03/09 12:43:02;;;;;;;26.13;15.47;;;5.30;89.80;;;;;;5080109;28;20032;-89
2021/03/09 12:45:27;;;;;;;27.77;17.10;;;5.30;88.40;;;;;;5081886;28;20032;-87
2021/03/09 12:47:53;;;;;;;24.60;15.57;;;5.30;90.20;;;;;;5081047;28;20035;-90
2021/03/09 12:50:19;;;;;;;24.63;14.53;;;5.30;87.90;;;;;;5082106;28;20028;-90
2021/03/09 12:52:45;;;;;;;28.17;16.13;;;5.30;87.70;;;;;;5091914;28;20020;-88
2021/03/09 12:55:12;;;;;;;28.13;15.83;;;5.40;87.80;;;;;;5078230;28;20031;-87
2021/03/09 12:57:37;;;;;;;25.77;14.73;;;5.40;88.60;;;;;;5061249;28;20021;-89